Wilsey Dupre — WDF3703 — position and weather

sailwx.info

Track history (hours):
 
Tides and Currents Weather Stations Pressure Air Temp Water Temp Dewpoint Dewpoint Depression Visibility Wind Speed Wind Dir Waves Ship Positions

Wilsey Dupre

Owner: LeBeouf Bros. Towing, LLC, Houma, LA. More information available from US FCC via Universal Licensing System.

Last reported at 2018-May-27 17:03 UTC. Time now 2018-May-28 01:15 UTC.
Position N 29°42' W 095°03'.

Length 23 m; draft 3 m.

Type: Ship. MMSI: 367443060.

Date/timePositionNaut miles runAvg speedWind from/ knotsBaromVisibWave heightAir tempDewpointWater temp
2018-May-27 17:03N 29°42' W 095°03'0 0.0
2018-May-27 16:50N 29°42' W 095°03'0 0.0
2018-May-27 16:30N 29°42' W 095°03'0 0.0
2018-May-27 15:47N 29°42' W 095°03'0 0.0
2018-May-27 15:27N 29°42' W 095°03'0 0.0
2018-May-27 15:00N 29°42' W 095°03'0 0.0
2018-May-27 14:29N 29°42' W 095°03'0 0.0
2018-May-27 13:56N 29°42' W 095°03'0 0.0
2018-May-27 13:22N 29°42' W 095°03'0 0.0
2018-May-27 13:00N 29°42' W 095°03'0 0.0
2018-May-27 09:47N 29°42' W 095°03'0 0.0
2018-May-27 09:27N 29°42' W 095°03'0 0.0
2018-May-27 09:00N 29°42' W 095°03'0 0.0
2018-May-27 08:30N 29°42' W 095°03'0 0.0
2018-May-27 08:00N 29°42' W 095°03'0 0.0
2018-May-27 07:30N 29°42' W 095°03'0 0.0
2018-May-27 06:59N 29°42' W 095°03'0 0.0
2018-May-27 06:28N 29°42' W 095°03'0 0.0
2018-May-27 06:00N 29°42' W 095°03'0 0.0
2018-May-27 05:30N 29°42' W 095°03'0 0.0
2018-May-27 04:53N 29°42' W 095°03'0 0.0
2018-May-27 04:18N 29°42' W 095°03'0 0.0
2018-May-27 04:00N 29°42' W 095°03'0 0.0
2018-May-27 03:30N 29°42' W 095°03'0 0.0
2018-May-27 02:57N 29°42' W 095°03'0 0.0
2018-May-27 02:29N 29°42' W 095°03'0 0.0
2018-May-26 23:23N 29°42' W 095°03'0 0.1
2018-May-26 20:03N 29°42' W 095°03'1 3.8
2018-May-26 19:54N 29°42' W 095°02'2 0.0
2018-May-24 23:29N 29°44' W 095°02'2 0.1
2018-May-23 23:02N 29°42' W 095°03'0 0.2
2018-May-23 22:59N 29°42' W 095°03'0 0.0
2018-May-23 22:20N 29°42' W 095°03'0 0.0
2018-May-23 21:58N 29°42' W 095°03'0 0.0
2018-May-23 21:29N 29°42' W 095°03'0 0.0
2018-May-23 20:59N 29°42' W 095°03'0 0.0
2018-May-23 20:30N 29°42' W 095°03'0 0.0
2018-May-23 19:52N 29°42' W 095°03'0 0.0
2018-May-23 19:19N 29°42' W 095°03'0 0.0
2018-May-23 12:42N 29°42' W 095°03'0 0.0
2018-May-23 03:17N 29°42' W 095°03'0 0.0
2018-May-22 14:13N 29°42' W 095°03'0 0.0
2018-May-22 14:00N 29°42' W 095°03'0 0.0
2018-May-22 13:28N 29°42' W 095°03'0 0.0
2018-May-22 12:51N 29°42' W 095°03'0 0.0
2018-May-22 12:27N 29°42' W 095°03'1 0.2
2018-May-22 08:08N 29°42' W 095°02'4 1.3
2018-May-22 05:04N 29°46' W 095°04'4 3.4
2018-May-22 03:58N 29°43' W 095°01'1 0.1
2018-May-21 04:49N 29°42' W 095°03'0 0.0
2018-May-20 18:31N 29°42' W 095°03'0 0.0
2018-May-20 18:18N 29°42' W 095°03'  
2018-May-18 12:02N 29°42' W 095°03'0 2.1
2018-May-18 11:57N 29°42' W 095°03'1 2.7
2018-May-18 11:26N 29°44' W 095°03'4 6.1
2018-May-18 10:46N 29°44' W 095°07'2 7.7
2018-May-18 10:30N 29°45' W 095°10'2 3.6
2018-May-18 10:00N 29°45' W 095°12'0 0.0
2018-May-18 09:30N 29°45' W 095°12'0 0.0
2018-May-18 09:00N 29°45' W 095°12'0 0.0
2018-May-18 08:30N 29°45' W 095°12'0 0.0
2018-May-18 08:00N 29°45' W 095°12'0 0.0
2018-May-18 07:30N 29°45' W 095°12'0 0.0
2018-May-18 06:58N 29°45' W 095°12'0 0.0
2018-May-18 06:30N 29°45' W 095°12'0 0.0
2018-May-18 06:00N 29°45' W 095°12'0 0.0
2018-May-18 05:30N 29°45' W 095°12'0 0.0
2018-May-18 05:00N 29°45' W 095°12'0 0.0
2018-May-18 04:29N 29°45' W 095°12'0 0.0
2018-May-18 03:59N 29°45' W 095°12'0 0.0
2018-May-18 03:30N 29°45' W 095°12'0 0.0
2018-May-18 03:00N 29°45' W 095°12'0 0.0
2018-May-18 02:30N 29°45' W 095°12'  
Track history (hours):
 
Tides and Currents Weather Stations Pressure Air Temp Water Temp Dewpoint Dewpoint Depression Visibility Wind Speed Wind Dir Waves Ship Positions

Wilsey Dupre

Owner: LeBeouf Bros. Towing, LLC, Houma, LA. More information available from US FCC via Universal Licensing System.

Last reported at 2018-May-27 17:03 UTC. Time now 2018-May-28 01:15 UTC.
Position N 29°42' W 095°03'.

Length 23 m; draft 3 m.

Type: Ship. MMSI: 367443060.

Date/timePositionNaut miles runAvg speedWind from/ knotsBaromVisibWave heightAir tempDewpointWater temp
2018-May-27 17:03N 29°42' W 095°03'0 0.0
2018-May-27 16:50N 29°42' W 095°03'0 0.0
2018-May-27 16:30N 29°42' W 095°03'0 0.0
2018-May-27 15:47N 29°42' W 095°03'0 0.0
2018-May-27 15:27N 29°42' W 095°03'0 0.0
2018-May-27 15:00N 29°42' W 095°03'0 0.0
2018-May-27 14:29N 29°42' W 095°03'0 0.0
2018-May-27 13:56N 29°42' W 095°03'0 0.0
2018-May-27 13:22N 29°42' W 095°03'0 0.0
2018-May-27 13:00N 29°42' W 095°03'0 0.0
2018-May-27 09:47N 29°42' W 095°03'0 0.0
2018-May-27 09:27N 29°42' W 095°03'0 0.0
2018-May-27 09:00N 29°42' W 095°03'0 0.0
2018-May-27 08:30N 29°42' W 095°03'0 0.0
2018-May-27 08:00N 29°42' W 095°03'0 0.0
2018-May-27 07:30N 29°42' W 095°03'0 0.0
2018-May-27 06:59N 29°42' W 095°03'0 0.0
2018-May-27 06:28N 29°42' W 095°03'0 0.0
2018-May-27 06:00N 29°42' W 095°03'0 0.0
2018-May-27 05:30N 29°42' W 095°03'0 0.0
2018-May-27 04:53N 29°42' W 095°03'0 0.0
2018-May-27 04:18N 29°42' W 095°03'0 0.0
2018-May-27 04:00N 29°42' W 095°03'0 0.0
2018-May-27 03:30N 29°42' W 095°03'0 0.0
2018-May-27 02:57N 29°42' W 095°03'0 0.0
2018-May-27 02:29N 29°42' W 095°03'0 0.0
2018-May-26 23:23N 29°42' W 095°03'0 0.1
2018-May-26 20:03N 29°42' W 095°03'1 3.8
2018-May-26 19:54N 29°42' W 095°02'2 0.0
2018-May-24 23:29N 29°44' W 095°02'2 0.1
2018-May-23 23:02N 29°42' W 095°03'0 0.2
2018-May-23 22:59N 29°42' W 095°03'0 0.0
2018-May-23 22:20N 29°42' W 095°03'0 0.0
2018-May-23 21:58N 29°42' W 095°03'0 0.0
2018-May-23 21:29N 29°42' W 095°03'0 0.0
2018-May-23 20:59N 29°42' W 095°03'0 0.0
2018-May-23 20:30N 29°42' W 095°03'0 0.0
2018-May-23 19:52N 29°42' W 095°03'0 0.0
2018-May-23 19:19N 29°42' W 095°03'0 0.0
2018-May-23 12:42N 29°42' W 095°03'0 0.0
2018-May-23 03:17N 29°42' W 095°03'0 0.0
2018-May-22 14:13N 29°42' W 095°03'0 0.0
2018-May-22 14:00N 29°42' W 095°03'0 0.0
2018-May-22 13:28N 29°42' W 095°03'0 0.0
2018-May-22 12:51N 29°42' W 095°03'0 0.0
2018-May-22 12:27N 29°42' W 095°03'1 0.2
2018-May-22 08:08N 29°42' W 095°02'4 1.3
2018-May-22 05:04N 29°46' W 095°04'4 3.4
2018-May-22 03:58N 29°43' W 095°01'1 0.1
2018-May-21 04:49N 29°42' W 095°03'0 0.0
2018-May-20 18:31N 29°42' W 095°03'0 0.0
2018-May-20 18:18N 29°42' W 095°03'  
2018-May-18 12:02N 29°42' W 095°03'0 2.1
2018-May-18 11:57N 29°42' W 095°03'1 2.7
2018-May-18 11:26N 29°44' W 095°03'4 6.1
2018-May-18 10:46N 29°44' W 095°07'2 7.7
2018-May-18 10:30N 29°45' W 095°10'2 3.6
2018-May-18 10:00N 29°45' W 095°12'0 0.0
2018-May-18 09:30N 29°45' W 095°12'0 0.0
2018-May-18 09:00N 29°45' W 095°12'0 0.0
2018-May-18 08:30N 29°45' W 095°12'0 0.0
2018-May-18 08:00N 29°45' W 095°12'0 0.0
2018-May-18 07:30N 29°45' W 095°12'0 0.0
2018-May-18 06:58N 29°45' W 095°12'0 0.0
2018-May-18 06:30N 29°45' W 095°12'0 0.0
2018-May-18 06:00N 29°45' W 095°12'0 0.0
2018-May-18 05:30N 29°45' W 095°12'0 0.0
2018-May-18 05:00N 29°45' W 095°12'0 0.0
2018-May-18 04:29N 29°45' W 095°12'0 0.0
2018-May-18 03:59N 29°45' W 095°12'0 0.0
2018-May-18 03:30N 29°45' W 095°12'0 0.0
2018-May-18 03:00N 29°45' W 095°12'0 0.0
2018-May-18 02:30N 29°45' W 095°12'  

Dump ship's entire track history